createdAt,value
2023-03-18T00:01:34.785Z,13.60
2023-03-18T00:04:01.990Z,12.70
2023-03-18T00:06:30.584Z,12.20
2023-03-18T00:08:58.555Z,12.80
2023-03-18T00:11:27.527Z,12.00
2023-03-18T00:13:55.884Z,13.80
2023-03-18T00:16:27.202Z,12.70
2023-03-18T00:18:56.131Z,12.70
2023-03-18T00:21:24.199Z,12.10
2023-03-18T00:23:56.253Z,12.60
2023-03-18T00:26:26.289Z,13.30
2023-03-18T00:29:07.354Z,13.20
2023-03-18T00:31:35.567Z,11.90
2023-03-18T00:34:04.356Z,13.10
2023-03-18T00:36:32.125Z,13.60
2023-03-18T00:39:03.374Z,13.60
2023-03-18T00:41:34.073Z,14.90
2023-03-18T00:44:04.472Z,14.10
2023-03-18T00:46:38.111Z,12.60
2023-03-18T00:49:07.062Z,14.20
2023-03-18T00:51:37.018Z,14.50
2023-03-18T00:54:12.394Z,13.90
2023-03-18T00:56:41.319Z,15.00
2023-03-18T00:59:11.699Z,14.80
2023-03-18T01:01:39.497Z,13.70
2023-03-18T01:04:07.564Z,14.80
2023-03-18T01:06:35.982Z,12.80
2023-03-18T01:09:06.209Z,11.60
2023-03-18T01:11:37.405Z,12.30
2023-03-18T01:14:05.783Z,12.10
2023-03-18T01:16:37.486Z,11.30
2023-03-18T01:19:06.366Z,11.20
2023-03-18T01:21:33.598Z,11.00
2023-03-18T01:24:01.363Z,11.60
2023-03-18T01:26:30.160Z,11.80
2023-03-18T01:28:59.858Z,10.70
2023-03-18T01:31:28.171Z,10.10
2023-03-18T01:33:57.847Z,10.70
2023-03-18T01:36:28.530Z,9.80
2023-03-18T01:39:06.300Z,10.90
2023-03-18T01:41:36.584Z,10.90
2023-03-18T01:44:11.152Z,11.10
2023-03-18T01:46:45.647Z,10.20
2023-03-18T01:49:17.211Z,9.60
2023-03-18T01:51:57.159Z,9.20
2023-03-18T01:54:27.555Z,9.40
2023-03-18T01:56:55.494Z,8.90
2023-03-18T01:59:24.033Z,8.10
2023-03-18T02:01:58.335Z,8.50
2023-03-18T02:04:29.074Z,8.10
2023-03-18T02:06:58.216Z,8.00
2023-03-18T02:09:30.561Z,6.90
2023-03-18T02:12:00.264Z,6.90
2023-03-18T02:14:29.255Z,7.80
2023-03-18T02:17:02.527Z,7.50
2023-03-18T02:20:03.905Z,6.50
2023-03-18T02:22:33.956Z,6.50
2023-03-18T02:29:48.478Z,6.60
2023-03-18T02:32:18.557Z,6.20
2023-03-18T02:34:46.066Z,7.20
2023-03-18T02:37:13.246Z,6.70
2023-03-18T02:39:42.783Z,6.70
2023-03-18T02:42:14.285Z,6.90
2023-03-18T02:44:48.284Z,6.00
2023-03-18T02:47:40.559Z,7.10
2023-03-18T02:50:10.267Z,6.30
2023-03-18T02:52:38.759Z,6.80
2023-03-18T02:55:07.700Z,7.80
2023-03-18T02:57:36.177Z,7.30
2023-03-18T03:00:05.341Z,7.60
2023-03-18T03:02:35.220Z,6.20
2023-03-18T03:05:05.059Z,7.00
2023-03-18T03:07:32.515Z,6.70
2023-03-18T03:10:05.279Z,7.10
2023-03-18T03:12:41.338Z,6.90
2023-03-18T03:15:12.816Z,7.30
2023-03-18T03:17:43.617Z,7.90
2023-03-18T03:20:11.669Z,6.70
2023-03-18T03:22:39.504Z,7.60
2023-03-18T03:25:10.273Z,12.70
2023-03-18T03:27:38.361Z,9.20
2023-03-18T03:30:09.284Z,7.80
2023-03-18T03:32:36.849Z,7.90
2023-03-18T03:35:04.877Z,8.50
2023-03-18T03:37:32.067Z,9.30
2023-03-18T03:40:00.051Z,8.80
2023-03-18T03:42:27.008Z,7.60
2023-03-18T03:44:54.781Z,8.50
2023-03-18T03:47:24.676Z,9.40
2023-03-18T03:49:52.012Z,9.30
2023-03-18T03:52:21.686Z,9.00
2023-03-18T03:54:51.060Z,10.00
2023-03-18T03:57:19.453Z,9.70
2023-03-18T03:59:47.466Z,9.30
2023-03-18T04:02:25.015Z,8.10
2023-03-18T04:04:53.242Z,10.50
2023-03-18T04:07:26.743Z,8.40
2023-03-18T04:09:55.768Z,7.20
2023-03-18T04:12:23.481Z,7.10
2023-03-18T04:17:26.459Z,7.60
2023-03-18T04:19:56.246Z,7.20
2023-03-18T04:22:29.546Z,7.20
2023-03-18T04:24:58.832Z,8.80
2023-03-18T04:27:31.123Z,6.70
2023-03-18T04:30:01.452Z,6.50
2023-03-18T04:32:37.507Z,6.10
2023-03-18T04:35:09.333Z,5.90
2023-03-18T04:37:37.617Z,6.90
2023-03-18T04:40:06.891Z,6.10
2023-03-18T04:42:35.071Z,5.60
2023-03-18T04:45:05.315Z,5.60
2023-03-18T04:47:35.717Z,6.00
2023-03-18T04:50:04.316Z,6.40
2023-03-18T04:52:36.566Z,6.40
2023-03-18T04:57:38.606Z,6.90
2023-03-18T05:00:11.543Z,6.70
2023-03-18T05:02:40.938Z,6.50
2023-03-18T05:05:08.296Z,6.60
2023-03-18T05:07:40.067Z,5.80
2023-03-18T05:10:10.835Z,6.50
2023-03-18T05:12:43.041Z,5.70
2023-03-18T05:15:14.230Z,5.00
2023-03-18T05:17:46.090Z,4.90
2023-03-18T05:20:15.794Z,4.40
2023-03-18T05:22:44.506Z,5.90
2023-03-18T05:25:16.944Z,5.50
2023-03-18T05:27:45.399Z,4.70
2023-03-18T05:30:22.983Z,5.40
2023-03-18T05:33:00.643Z,4.80
2023-03-18T05:35:46.707Z,4.80
2023-03-18T05:41:00.143Z,4.80
2023-03-18T05:43:39.902Z,4.80
2023-03-18T05:46:12.575Z,4.70
2023-03-18T05:48:52.428Z,5.50
2023-03-18T05:51:24.676Z,5.30
2023-03-18T05:53:57.719Z,5.20
2023-03-18T05:56:43.137Z,4.50
2023-03-18T05:59:20.493Z,4.80
2023-03-18T06:01:54.657Z,4.70
2023-03-18T06:04:27.420Z,5.60
2023-03-18T06:07:00.759Z,5.80
2023-03-18T06:09:30.777Z,4.10
2023-03-18T06:11:59.464Z,4.40
2023-03-18T06:14:29.121Z,4.80
2023-03-18T06:17:00.045Z,4.30
2023-03-18T06:19:31.913Z,4.60
2023-03-18T06:21:59.081Z,4.40
2023-03-18T06:24:28.693Z,4.20
2023-03-18T06:26:56.978Z,4.50
2023-03-18T06:29:26.651Z,4.20
2023-03-18T06:31:56.068Z,4.20
2023-03-18T06:34:31.935Z,5.40
2023-03-18T06:37:03.723Z,3.20
2023-03-18T06:39:31.972Z,4.90
2023-03-18T06:42:03.416Z,4.70
2023-03-18T06:44:56.876Z,5.40
2023-03-18T06:47:32.605Z,6.20
2023-03-18T06:50:01.096Z,4.70
2023-03-18T06:52:36.980Z,4.30
2023-03-18T06:55:09.803Z,4.70
2023-03-18T06:57:39.896Z,6.10
2023-03-18T07:17:37.050Z,4.60
2023-03-18T07:20:14.878Z,5.20
2023-03-18T07:22:54.731Z,5.00
2023-03-18T07:25:23.257Z,6.00
2023-03-18T07:27:58.217Z,7.00
2023-03-18T07:31:15.049Z,4.70
2023-03-18T07:33:49.406Z,4.70
2023-03-18T07:36:20.383Z,5.80
2023-03-18T07:38:49.209Z,6.10
2023-03-18T07:41:20.557Z,7.60
2023-03-18T07:43:53.305Z,6.20
2023-03-18T07:46:27.536Z,5.70
2023-03-18T07:48:59.572Z,5.70
2023-03-18T07:51:37.067Z,5.30
2023-03-18T07:54:18.265Z,4.00
2023-03-18T07:56:47.206Z,3.80
2023-03-18T07:59:32.711Z,4.30
2023-03-18T08:02:03.063Z,4.50
2023-03-18T08:09:18.825Z,4.50
2023-03-18T08:11:50.744Z,3.60
2023-03-18T08:14:19.189Z,3.40
2023-03-18T08:16:47.885Z,4.40
2023-03-18T08:19:18.539Z,3.40
2023-03-18T08:21:48.985Z,5.20
2023-03-18T08:24:20.301Z,4.00
2023-03-18T08:26:54.099Z,4.50
2023-03-18T08:29:23.629Z,4.10
2023-03-18T08:31:52.660Z,5.50
2023-03-18T08:34:24.743Z,5.20
2023-03-18T08:38:09.022Z,4.10
2023-03-18T08:40:40.692Z,4.60
2023-03-18T08:43:10.249Z,6.40
2023-03-18T08:45:48.031Z,5.30
2023-03-18T08:48:19.540Z,4.40
2023-03-18T08:50:51.122Z,4.10
2023-03-18T08:53:19.671Z,3.90
2023-03-18T08:55:54.231Z,3.30
2023-03-18T08:58:24.520Z,3.60
2023-03-18T09:00:57.119Z,2.80
2023-03-18T09:03:26.017Z,3.80
2023-03-18T09:09:43.173Z,4.40
2023-03-18T09:12:14.923Z,3.90
2023-03-18T09:14:43.328Z,4.70
2023-03-18T09:17:13.224Z,4.70
2023-03-18T09:19:44.901Z,4.00
2023-03-18T09:22:15.754Z,3.00
2023-03-18T09:24:44.375Z,3.30
2023-03-18T09:27:15.151Z,3.90
2023-03-18T09:29:52.317Z,4.40
2023-03-18T09:32:22.412Z,4.50
2023-03-18T09:34:58.967Z,3.20
2023-03-18T09:37:32.384Z,3.30
2023-03-18T09:40:03.972Z,3.20
2023-03-18T09:42:57.041Z,3.40
2023-03-18T09:45:28.194Z,2.60
2023-03-18T09:48:06.491Z,3.90
2023-03-18T09:51:00.840Z,3.60
2023-03-18T09:53:50.406Z,3.40
2023-03-18T09:56:21.114Z,2.90
2023-03-18T09:58:56.208Z,2.60
2023-03-18T10:01:23.561Z,3.30
2023-03-18T10:03:54.125Z,3.00
2023-03-18T10:06:24.284Z,3.00
2023-03-18T10:09:17.507Z,3.10
2023-03-18T10:11:53.318Z,2.30
2023-03-18T10:14:27.416Z,2.90
2023-03-18T10:17:23.242Z,2.50
2023-03-18T10:19:53.894Z,3.10
2023-03-18T10:23:03.943Z,2.90
2023-03-18T10:25:54.993Z,3.50
2023-03-18T10:28:33.065Z,3.30
2023-03-18T10:31:03.795Z,2.90
2023-03-18T10:33:43.157Z,3.20
2023-03-18T10:36:44.748Z,4.60
2023-03-18T10:39:23.920Z,5.60
2023-03-18T10:42:02.345Z,7.50
2023-03-18T10:44:55.499Z,5.00
2023-03-18T10:47:31.590Z,4.10
2023-03-18T10:50:32.595Z,5.00
2023-03-18T10:53:08.693Z,5.50
2023-03-18T11:02:11.078Z,5.40
2023-03-18T11:04:47.764Z,3.10
2023-03-18T11:07:30.713Z,2.30
2023-03-18T11:10:23.281Z,3.20
2023-03-18T11:15:19.674Z,2.40
2023-03-18T11:17:49.516Z,2.50
2023-03-18T11:20:47.565Z,2.40
2023-03-18T11:23:36.002Z,2.50
2023-03-18T11:26:05.208Z,2.70
2023-03-18T11:28:34.177Z,3.50
2023-03-18T11:31:01.928Z,2.90
2023-03-18T11:33:36.759Z,2.50
2023-03-18T11:36:06.262Z,2.00
2023-03-18T11:38:34.914Z,2.90
2023-03-18T11:41:09.254Z,2.10
2023-03-18T11:43:37.815Z,2.60
2023-03-18T11:46:10.412Z,4.60
2023-03-18T11:48:40.072Z,9.60
2023-03-18T11:51:35.221Z,4.30
2023-03-18T11:54:10.432Z,3.60
2023-03-18T11:56:42.652Z,3.80
2023-03-18T11:59:32.208Z,2.20
2023-03-18T12:02:35.865Z,4.50
2023-03-18T12:09:57.307Z,4.00
2023-03-18T12:12:55.852Z,4.50
2023-03-18T12:16:00.917Z,2.70
2023-03-18T12:18:43.309Z,2.60
2023-03-18T12:21:50.100Z,1.90
2023-03-18T12:24:52.672Z,2.20
2023-03-18T12:28:00.581Z,2.40
2023-03-18T12:30:45.486Z,4.10
2023-03-18T12:33:34.025Z,2.90
2023-03-18T12:36:51.968Z,4.60
2023-03-18T12:39:31.178Z,3.10
2023-03-18T12:42:21.873Z,4.10
2023-03-18T12:45:02.920Z,3.80
2023-03-18T12:47:46.463Z,4.90
2023-03-18T12:50:19.850Z,4.90
2023-03-18T12:53:09.351Z,6.40
2023-03-18T12:56:16.851Z,3.80
2023-03-18T12:58:49.465Z,3.00
2023-03-18T13:01:24.438Z,3.10
2023-03-18T13:03:57.226Z,3.40
2023-03-18T13:06:33.597Z,2.80
2023-03-18T13:09:26.215Z,3.10
2023-03-18T13:12:26.829Z,5.80
2023-03-18T13:15:12.895Z,3.70
2023-03-18T13:17:42.387Z,3.70
2023-03-18T13:20:15.858Z,2.40
2023-03-18T13:23:05.638Z,3.20
2023-03-18T13:25:37.869Z,2.90
2023-03-18T13:28:33.568Z,2.70
2023-03-18T13:31:29.393Z,3.40
2023-03-18T13:34:33.878Z,2.90
2023-03-18T13:37:33.396Z,2.40
2023-03-18T13:40:31.636Z,2.70
2023-03-18T13:43:00.814Z,3.60
2023-03-18T13:45:31.857Z,2.60
2023-03-18T13:48:03.245Z,6.50
2023-03-18T13:50:35.203Z,4.70
2023-03-18T13:53:04.356Z,4.30
2023-03-18T13:55:40.091Z,3.50
2023-03-18T13:58:17.254Z,3.80
2023-03-18T14:00:55.763Z,3.90
2023-03-18T14:03:31.938Z,4.50
2023-03-18T14:06:04.902Z,7.70
2023-03-18T14:21:52.791Z,4.60
2023-03-18T14:24:33.269Z,6.10
2023-03-18T14:27:09.059Z,7.00
2023-03-18T14:29:43.317Z,6.20
2023-03-18T14:32:22.430Z,4.10
2023-03-18T14:34:54.244Z,3.60
2023-03-18T14:37:35.381Z,3.40
2023-03-18T14:40:15.778Z,4.20
2023-03-18T14:43:03.104Z,4.00
2023-03-18T14:45:39.499Z,3.80
2023-03-18T14:48:29.004Z,4.30
2023-03-18T14:51:00.698Z,3.90
2023-03-18T14:53:45.809Z,6.30
2023-03-18T14:56:29.341Z,4.60
2023-03-18T14:58:56.820Z,5.40
2023-03-18T15:01:37.454Z,5.70
2023-03-18T15:04:10.119Z,5.20
2023-03-18T15:07:09.289Z,4.80
2023-03-18T15:09:45.868Z,6.20
2023-03-18T15:12:25.910Z,7.50
2023-03-18T15:15:00.108Z,6.50
2023-03-18T15:17:28.022Z,7.40
2023-03-18T15:20:06.550Z,7.90
2023-03-18T15:22:35.418Z,11.40
2023-03-18T15:25:13.051Z,11.10
2023-03-18T15:28:05.154Z,6.70
2023-03-18T15:30:34.418Z,7.70
2023-03-18T15:33:16.293Z,5.20
2023-03-18T15:35:45.929Z,4.50
2023-03-18T15:38:16.060Z,4.50
2023-03-18T15:43:31.136Z,4.60
2023-03-18T15:46:00.759Z,5.30
2023-03-18T15:48:42.561Z,7.50
2023-03-18T15:52:07.769Z,6.70
2023-03-18T15:54:53.641Z,14.10
2023-03-18T15:59:58.230Z,11.30
2023-03-18T16:02:26.641Z,8.90
2023-03-18T16:05:27.963Z,10.80
2023-03-18T16:08:03.583Z,10.40
2023-03-18T16:11:00.436Z,11.60
2023-03-18T16:13:34.943Z,7.90
2023-03-18T16:16:03.622Z,8.20
2023-03-18T16:18:34.773Z,7.40
2023-03-18T16:21:14.838Z,6.70
2023-03-18T16:23:42.753Z,6.90
2023-03-18T16:26:16.376Z,6.70
2023-03-18T16:28:47.057Z,5.80
2023-03-18T16:31:49.924Z,5.60
2023-03-18T16:34:36.725Z,5.60
2023-03-18T16:37:06.036Z,6.00
2023-03-18T16:39:34.925Z,5.70
2023-03-18T16:42:06.924Z,6.70
2023-03-18T16:44:35.631Z,5.60
2023-03-18T16:47:05.464Z,5.70
2023-03-18T16:49:34.084Z,6.80
2023-03-18T16:52:06.319Z,6.70
2023-03-18T16:54:34.025Z,8.30
2023-03-18T16:57:15.813Z,6.50
2023-03-18T16:59:56.178Z,7.90
